sensor_id;sensor_type;location;lat;lon;timestamp;P1;durP1;ratioP1;P2;durP2;ratioP2
75716;SDS011;64333;50.138;14.332;2023-04-24T00:00:30;31.77;;;13.40;;
75716;SDS011;64333;50.138;14.332;2023-04-24T00:02:56;48.20;;;17.08;;
75716;SDS011;64333;50.138;14.332;2023-04-24T00:05:22;71.10;;;22.80;;
75716;SDS011;64333;50.138;14.332;2023-04-24T00:07:47;41.65;;;17.52;;
75716;SDS011;64333;50.138;14.332;2023-04-24T00:10:12;22.80;;;9.15;;
75716;SDS011;64333;50.138;14.332;2023-04-24T00:12:38;13.02;;;6.38;;
75716;SDS011;64333;50.138;14.332;2023-04-24T00:15:03;9.10;;;5.03;;
75716;SDS011;64333;50.138;14.332;2023-04-24T00:17:29;8.52;;;4.03;;
75716;SDS011;64333;50.138;14.332;2023-04-24T00:19:54;7.30;;;3.08;;
75716;SDS011;64333;50.138;14.332;2023-04-24T00:22:27;5.85;;;3.15;;
75716;SDS011;64333;50.138;14.332;2023-04-24T00:24:52;4.45;;;2.70;;
75716;SDS011;64333;50.138;14.332;2023-04-24T00:27:17;3.33;;;2.40;;
75716;SDS011;64333;50.138;14.332;2023-04-24T00:29:43;3.23;;;2.30;;
75716;SDS011;64333;50.138;14.332;2023-04-24T00:32:08;3.37;;;2.20;;
75716;SDS011;64333;50.138;14.332;2023-04-24T00:34:33;3.33;;;2.20;;
75716;SDS011;64333;50.138;14.332;2023-04-24T00:36:58;3.80;;;2.42;;
75716;SDS011;64333;50.138;14.332;2023-04-24T00:39:24;4.33;;;2.63;;
75716;SDS011;64333;50.138;14.332;2023-04-24T00:41:49;2.10;;;1.60;;
75716;SDS011;64333;50.138;14.332;2023-04-24T00:44:15;2.88;;;1.48;;
75716;SDS011;64333;50.138;14.332;2023-04-24T00:46:41;1.70;;;1.30;;
75716;SDS011;64333;50.138;14.332;2023-04-24T00:49:07;1.73;;;1.20;;
75716;SDS011;64333;50.138;14.332;2023-04-24T00:51:32;1.80;;;1.50;;
75716;SDS011;64333;50.138;14.332;2023-04-24T00:54:01;2.22;;;1.20;;
75716;SDS011;64333;50.138;14.332;2023-04-24T00:56:26;2.13;;;1.10;;
75716;SDS011;64333;50.138;14.332;2023-04-24T00:58:51;1.75;;;1.13;;
75716;SDS011;64333;50.138;14.332;2023-04-24T01:01:17;1.50;;;1.20;;
75716;SDS011;64333;50.138;14.332;2023-04-24T01:03:45;1.77;;;1.10;;
75716;SDS011;64333;50.138;14.332;2023-04-24T01:06:10;1.17;;;0.93;;
75716;SDS011;64333;50.138;14.332;2023-04-24T01:08:37;1.67;;;0.90;;
75716;SDS011;64333;50.138;14.332;2023-04-24T01:11:03;2.28;;;1.13;;
75716;SDS011;64333;50.138;14.332;2023-04-24T01:13:29;2.13;;;1.42;;
75716;SDS011;64333;50.138;14.332;2023-04-24T01:15:56;1.48;;;1.00;;
75716;SDS011;64333;50.138;14.332;2023-04-24T01:18:21;1.20;;;1.07;;
75716;SDS011;64333;50.138;14.332;2023-04-24T01:20:46;1.77;;;0.90;;
75716;SDS011;64333;50.138;14.332;2023-04-24T01:23:14;1.48;;;0.90;;
75716;SDS011;64333;50.138;14.332;2023-04-24T01:25:40;3.25;;;0.80;;
75716;SDS011;64333;50.138;14.332;2023-04-24T01:28:05;1.35;;;1.00;;
75716;SDS011;64333;50.138;14.332;2023-04-24T01:30:30;1.20;;;1.10;;
75716;SDS011;64333;50.138;14.332;2023-04-24T01:32:56;1.25;;;0.90;;
75716;SDS011;64333;50.138;14.332;2023-04-24T01:35:21;1.50;;;1.05;;
75716;SDS011;64333;50.138;14.332;2023-04-24T01:37:47;1.90;;;1.27;;
75716;SDS011;64333;50.138;14.332;2023-04-24T01:40:12;2.90;;;1.42;;
75716;SDS011;64333;50.138;14.332;2023-04-24T01:42:37;3.77;;;1.60;;
75716;SDS011;64333;50.138;14.332;2023-04-24T01:45:03;1.57;;;1.27;;
75716;SDS011;64333;50.138;14.332;2023-04-24T01:47:30;1.80;;;1.10;;
75716;SDS011;64333;50.138;14.332;2023-04-24T01:49:55;1.80;;;0.90;;
75716;SDS011;64333;50.138;14.332;2023-04-24T01:52:21;1.55;;;1.42;;
75716;SDS011;64333;50.138;14.332;2023-04-24T01:54:46;1.75;;;0.90;;
75716;SDS011;64333;50.138;14.332;2023-04-24T01:57:12;2.38;;;0.98;;
75716;SDS011;64333;50.138;14.332;2023-04-24T01:59:37;2.03;;;1.13;;
75716;SDS011;64333;50.138;14.332;2023-04-24T02:02:02;2.80;;;0.93;;
75716;SDS011;64333;50.138;14.332;2023-04-24T02:04:28;1.65;;;1.15;;
75716;SDS011;64333;50.138;14.332;2023-04-24T02:06:53;1.40;;;0.90;;
75716;SDS011;64333;50.138;14.332;2023-04-24T02:09:18;1.65;;;0.95;;
75716;SDS011;64333;50.138;14.332;2023-04-24T02:11:44;2.83;;;1.50;;
75716;SDS011;64333;50.138;14.332;2023-04-24T02:14:09;2.03;;;1.00;;
75716;SDS011;64333;50.138;14.332;2023-04-24T02:16:34;2.47;;;1.00;;
75716;SDS011;64333;50.138;14.332;2023-04-24T02:19:00;1.52;;;1.05;;
75716;SDS011;64333;50.138;14.332;2023-04-24T02:21:26;1.50;;;1.00;;
75716;SDS011;64333;50.138;14.332;2023-04-24T02:23:52;1.40;;;1.00;;
75716;SDS011;64333;50.138;14.332;2023-04-24T02:26:17;1.70;;;1.13;;
75716;SDS011;64333;50.138;14.332;2023-04-24T02:28:43;2.28;;;1.30;;
75716;SDS011;64333;50.138;14.332;2023-04-24T02:31:08;2.40;;;1.27;;
75716;SDS011;64333;50.138;14.332;2023-04-24T02:33:33;2.57;;;1.70;;
75716;SDS011;64333;50.138;14.332;2023-04-24T02:35:59;1.97;;;1.57;;
75716;SDS011;64333;50.138;14.332;2023-04-24T02:38:24;3.67;;;1.42;;
75716;SDS011;64333;50.138;14.332;2023-04-24T02:40:49;2.75;;;1.58;;
75716;SDS011;64333;50.138;14.332;2023-04-24T02:43:15;2.33;;;1.33;;
75716;SDS011;64333;50.138;14.332;2023-04-24T02:45:40;3.27;;;1.80;;
75716;SDS011;64333;50.138;14.332;2023-04-24T02:48:05;2.77;;;1.90;;
75716;SDS011;64333;50.138;14.332;2023-04-24T02:50:30;2.50;;;1.90;;
75716;SDS011;64333;50.138;14.332;2023-04-24T02:52:56;2.58;;;2.15;;
75716;SDS011;64333;50.138;14.332;2023-04-24T02:55:21;2.93;;;1.40;;
75716;SDS011;64333;50.138;14.332;2023-04-24T02:57:47;3.27;;;1.90;;
75716;SDS011;64333;50.138;14.332;2023-04-24T03:00:12;3.23;;;1.87;;
75716;SDS011;64333;50.138;14.332;2023-04-24T03:02:38;3.78;;;2.40;;
75716;SDS011;64333;50.138;14.332;2023-04-24T03:05:03;2.67;;;2.30;;
75716;SDS011;64333;50.138;14.332;2023-04-24T03:07:29;3.17;;;2.10;;
75716;SDS011;64333;50.138;14.332;2023-04-24T03:09:54;2.17;;;1.70;;
75716;SDS011;64333;50.138;14.332;2023-04-24T03:12:20;3.63;;;2.10;;
75716;SDS011;64333;50.138;14.332;2023-04-24T03:14:48;2.33;;;2.13;;
75716;SDS011;64333;50.138;14.332;2023-04-24T03:17:13;2.33;;;1.97;;
75716;SDS011;64333;50.138;14.332;2023-04-24T03:19:39;1.90;;;1.63;;
75716;SDS011;64333;50.138;14.332;2023-04-24T03:22:04;2.03;;;1.63;;
75716;SDS011;64333;50.138;14.332;2023-04-24T03:24:29;2.77;;;1.70;;
75716;SDS011;64333;50.138;14.332;2023-04-24T03:26:55;3.05;;;1.80;;
75716;SDS011;64333;50.138;14.332;2023-04-24T03:29:21;2.50;;;1.92;;
75716;SDS011;64333;50.138;14.332;2023-04-24T03:31:47;2.05;;;1.60;;
75716;SDS011;64333;50.138;14.332;2023-04-24T03:34:12;2.80;;;1.80;;
75716;SDS011;64333;50.138;14.332;2023-04-24T03:36:37;3.13;;;1.63;;
75716;SDS011;64333;50.138;14.332;2023-04-24T03:39:02;2.73;;;1.80;;
75716;SDS011;64333;50.138;14.332;2023-04-24T03:41:28;3.20;;;1.92;;
75716;SDS011;64333;50.138;14.332;2023-04-24T03:43:55;2.55;;;1.73;;
75716;SDS011;64333;50.138;14.332;2023-04-24T03:46:20;2.17;;;1.73;;
75716;SDS011;64333;50.138;14.332;2023-04-24T03:48:45;2.27;;;1.70;;
75716;SDS011;64333;50.138;14.332;2023-04-24T03:51:10;3.63;;;1.83;;
75716;SDS011;64333;50.138;14.332;2023-04-24T03:53:36;3.63;;;1.93;;
75716;SDS011;64333;50.138;14.332;2023-04-24T03:56:01;3.57;;;1.97;;
75716;SDS011;64333;50.138;14.332;2023-04-24T03:58:26;2.17;;;1.87;;
75716;SDS011;64333;50.138;14.332;2023-04-24T04:00:51;2.83;;;1.90;;
75716;SDS011;64333;50.138;14.332;2023-04-24T04:03:16;3.73;;;2.27;;
75716;SDS011;64333;50.138;14.332;2023-04-24T04:05:42;3.10;;;1.90;;
75716;SDS011;64333;50.138;14.332;2023-04-24T04:08:07;2.20;;;1.90;;
75716;SDS011;64333;50.138;14.332;2023-04-24T04:10:32;2.93;;;1.93;;
75716;SDS011;64333;50.138;14.332;2023-04-24T04:12:57;6.27;;;2.50;;
75716;SDS011;64333;50.138;14.332;2023-04-24T04:15:23;5.10;;;2.40;;
75716;SDS011;64333;50.138;14.332;2023-04-24T04:17:48;4.43;;;2.17;;
75716;SDS011;64333;50.138;14.332;2023-04-24T04:20:13;2.67;;;2.30;;
75716;SDS011;64333;50.138;14.332;2023-04-24T04:22:38;3.50;;;2.50;;
75716;SDS011;64333;50.138;14.332;2023-04-24T04:25:04;3.00;;;2.22;;
75716;SDS011;64333;50.138;14.332;2023-04-24T04:27:30;3.88;;;2.33;;
75716;SDS011;64333;50.138;14.332;2023-04-24T04:29:57;3.22;;;2.67;;
75716;SDS011;64333;50.138;14.332;2023-04-24T04:32:22;4.80;;;2.60;;
75716;SDS011;64333;50.138;14.332;2023-04-24T04:34:48;2.80;;;2.27;;
75716;SDS011;64333;50.138;14.332;2023-04-24T04:37:14;3.35;;;2.50;;
75716;SDS011;64333;50.138;14.332;2023-04-24T04:39:39;2.97;;;2.55;;
75716;SDS011;64333;50.138;14.332;2023-04-24T04:42:05;3.03;;;2.05;;
75716;SDS011;64333;50.138;14.332;2023-04-24T04:44:31;3.20;;;2.40;;
75716;SDS011;64333;50.138;14.332;2023-04-24T04:46:56;2.40;;;2.10;;
75716;SDS011;64333;50.138;14.332;2023-04-24T04:49:22;3.27;;;2.77;;
75716;SDS011;64333;50.138;14.332;2023-04-24T04:51:48;2.33;;;2.10;;
75716;SDS011;64333;50.138;14.332;2023-04-24T04:54:14;2.92;;;2.40;;
75716;SDS011;64333;50.138;14.332;2023-04-24T04:56:39;5.38;;;2.80;;
75716;SDS011;64333;50.138;14.332;2023-04-24T04:59:05;4.20;;;2.57;;
75716;SDS011;64333;50.138;14.332;2023-04-24T05:01:31;4.00;;;2.63;;
75716;SDS011;64333;50.138;14.332;2023-04-24T05:03:56;2.73;;;2.20;;
75716;SDS011;64333;50.138;14.332;2023-04-24T05:06:21;2.97;;;2.50;;
75716;SDS011;64333;50.138;14.332;2023-04-24T05:08:47;4.13;;;2.33;;
75716;SDS011;64333;50.138;14.332;2023-04-24T05:11:13;5.32;;;3.30;;
75716;SDS011;64333;50.138;14.332;2023-04-24T05:13:41;4.60;;;3.10;;
75716;SDS011;64333;50.138;14.332;2023-04-24T05:16:07;3.85;;;3.00;;
75716;SDS011;64333;50.138;14.332;2023-04-24T05:18:32;2.80;;;2.42;;
75716;SDS011;64333;50.138;14.332;2023-04-24T05:20:57;3.57;;;2.47;;
75716;SDS011;64333;50.138;14.332;2023-04-24T05:23:22;4.43;;;3.10;;
75716;SDS011;64333;50.138;14.332;2023-04-24T05:25:48;5.27;;;2.93;;
75716;SDS011;64333;50.138;14.332;2023-04-24T05:28:13;4.30;;;2.80;;
75716;SDS011;64333;50.138;14.332;2023-04-24T05:30:38;3.40;;;2.72;;
75716;SDS011;64333;50.138;14.332;2023-04-24T05:33:03;4.53;;;3.00;;
75716;SDS011;64333;50.138;14.332;2023-04-24T05:35:29;4.50;;;3.03;;
75716;SDS011;64333;50.138;14.332;2023-04-24T05:37:54;3.95;;;3.33;;
75716;SDS011;64333;50.138;14.332;2023-04-24T05:40:19;4.50;;;2.93;;
75716;SDS011;64333;50.138;14.332;2023-04-24T05:42:45;4.45;;;3.05;;
75716;SDS011;64333;50.138;14.332;2023-04-24T05:45:10;3.80;;;3.10;;
75716;SDS011;64333;50.138;14.332;2023-04-24T05:47:41;3.88;;;3.08;;
75716;SDS011;64333;50.138;14.332;2023-04-24T05:50:06;4.70;;;3.40;;
75716;SDS011;64333;50.138;14.332;2023-04-24T05:52:32;4.18;;;3.33;;
75716;SDS011;64333;50.138;14.332;2023-04-24T05:54:57;4.13;;;3.20;;
75716;SDS011;64333;50.138;14.332;2023-04-24T05:57:22;6.07;;;3.20;;
75716;SDS011;64333;50.138;14.332;2023-04-24T05:59:47;6.47;;;3.65;;
75716;SDS011;64333;50.138;14.332;2023-04-24T06:02:13;4.53;;;3.33;;
75716;SDS011;64333;50.138;14.332;2023-04-24T06:04:38;3.50;;;2.90;;
75716;SDS011;64333;50.138;14.332;2023-04-24T06:07:04;4.53;;;3.80;;
75716;SDS011;64333;50.138;14.332;2023-04-24T06:09:30;3.75;;;3.05;;
75716;SDS011;64333;50.138;14.332;2023-04-24T06:11:55;4.88;;;2.88;;
75716;SDS011;64333;50.138;14.332;2023-04-24T06:14:21;4.55;;;3.22;;
75716;SDS011;64333;50.138;14.332;2023-04-24T06:16:46;4.97;;;3.67;;
75716;SDS011;64333;50.138;14.332;2023-04-24T06:19:12;3.90;;;3.13;;
75716;SDS011;64333;50.138;14.332;2023-04-24T06:21:37;3.30;;;3.00;;
75716;SDS011;64333;50.138;14.332;2023-04-24T06:24:02;4.20;;;3.30;;
75716;SDS011;64333;50.138;14.332;2023-04-24T06:26:28;5.40;;;3.63;;
75716;SDS011;64333;50.138;14.332;2023-04-24T06:28:53;4.83;;;3.90;;
75716;SDS011;64333;50.138;14.332;2023-04-24T06:31:19;5.47;;;3.75;;
75716;SDS011;64333;50.138;14.332;2023-04-24T06:33:45;6.65;;;3.58;;
75716;SDS011;64333;50.138;14.332;2023-04-24T06:36:10;4.55;;;3.72;;
75716;SDS011;64333;50.138;14.332;2023-04-24T06:38:35;6.13;;;3.78;;
75716;SDS011;64333;50.138;14.332;2023-04-24T06:41:00;5.00;;;3.83;;
75716;SDS011;64333;50.138;14.332;2023-04-24T06:43:26;6.00;;;3.77;;
75716;SDS011;64333;50.138;14.332;2023-04-24T06:45:51;3.93;;;3.10;;
75716;SDS011;64333;50.138;14.332;2023-04-24T06:48:16;4.63;;;3.70;;
75716;SDS011;64333;50.138;14.332;2023-04-24T06:50:42;4.28;;;3.88;;
75716;SDS011;64333;50.138;14.332;2023-04-24T06:53:07;4.22;;;3.33;;
75716;SDS011;64333;50.138;14.332;2023-04-24T06:55:33;5.63;;;4.07;;
75716;SDS011;64333;50.138;14.332;2023-04-24T06:57:58;3.73;;;3.37;;
75716;SDS011;64333;50.138;14.332;2023-04-24T07:00:23;5.33;;;3.23;;
75716;SDS011;64333;50.138;14.332;2023-04-24T07:02:49;4.22;;;3.58;;
75716;SDS011;64333;50.138;14.332;2023-04-24T07:05:14;4.35;;;3.20;;
75716;SDS011;64333;50.138;14.332;2023-04-24T07:07:40;5.70;;;3.63;;
75716;SDS011;64333;50.138;14.332;2023-04-24T07:10:06;5.80;;;2.95;;
75716;SDS011;64333;50.138;14.332;2023-04-24T07:12:33;4.32;;;3.03;;
75716;SDS011;64333;50.138;14.332;2023-04-24T07:14:58;5.20;;;3.03;;
75716;SDS011;64333;50.138;14.332;2023-04-24T07:17:23;3.47;;;2.90;;
75716;SDS011;64333;50.138;14.332;2023-04-24T07:19:49;3.93;;;2.73;;
75716;SDS011;64333;50.138;14.332;2023-04-24T07:22:15;4.13;;;3.35;;
75716;SDS011;64333;50.138;14.332;2023-04-24T07:24:44;6.53;;;3.40;;
75716;SDS011;64333;50.138;14.332;2023-04-24T07:27:10;3.90;;;3.38;;
75716;SDS011;64333;50.138;14.332;2023-04-24T07:29:35;4.50;;;3.28;;
75716;SDS011;64333;50.138;14.332;2023-04-24T07:32:00;5.63;;;3.70;;
75716;SDS011;64333;50.138;14.332;2023-04-24T07:34:26;3.97;;;3.58;;
75716;SDS011;64333;50.138;14.332;2023-04-24T07:36:51;4.87;;;3.97;;
75716;SDS011;64333;50.138;14.332;2023-04-24T07:39:16;5.32;;;3.38;;
75716;SDS011;64333;50.138;14.332;2023-04-24T07:41:41;4.97;;;3.47;;
75716;SDS011;64333;50.138;14.332;2023-04-24T07:44:07;4.67;;;3.50;;
75716;SDS011;64333;50.138;14.332;2023-04-24T07:46:32;5.07;;;3.90;;
75716;SDS011;64333;50.138;14.332;2023-04-24T07:48:58;3.95;;;3.50;;
75716;SDS011;64333;50.138;14.332;2023-04-24T07:51:24;7.50;;;3.67;;
75716;SDS011;64333;50.138;14.332;2023-04-24T07:53:51;5.57;;;3.67;;
75716;SDS011;64333;50.138;14.332;2023-04-24T07:56:16;19.93;;;5.23;;
75716;SDS011;64333;50.138;14.332;2023-04-24T07:58:42;5.45;;;3.53;;
75716;SDS011;64333;50.138;14.332;2023-04-24T08:01:07;6.93;;;3.22;;
75716;SDS011;64333;50.138;14.332;2023-04-24T08:03:32;5.13;;;3.40;;
75716;SDS011;64333;50.138;14.332;2023-04-24T08:05:57;5.20;;;3.33;;
75716;SDS011;64333;50.138;14.332;2023-04-24T08:08:23;4.30;;;3.30;;
75716;SDS011;64333;50.138;14.332;2023-04-24T08:10:49;5.50;;;3.85;;
75716;SDS011;64333;50.138;14.332;2023-04-24T08:13:14;7.80;;;4.00;;
75716;SDS011;64333;50.138;14.332;2023-04-24T08:15:39;6.77;;;4.50;;
75716;SDS011;64333;50.138;14.332;2023-04-24T08:18:05;8.23;;;4.78;;
75716;SDS011;64333;50.138;14.332;2023-04-24T08:20:30;4.78;;;3.40;;
75716;SDS011;64333;50.138;14.332;2023-04-24T08:22:55;5.00;;;3.17;;
75716;SDS011;64333;50.138;14.332;2023-04-24T08:25:21;5.97;;;3.90;;
75716;SDS011;64333;50.138;14.332;2023-04-24T08:27:48;7.20;;;4.53;;
75716;SDS011;64333;50.138;14.332;2023-04-24T08:30:13;9.65;;;6.22;;
75716;SDS011;64333;50.138;14.332;2023-04-24T08:32:39;18.83;;;8.93;;
75716;SDS011;64333;50.138;14.332;2023-04-24T08:35:05;15.93;;;7.88;;
75716;SDS011;64333;50.138;14.332;2023-04-24T08:37:30;14.82;;;8.55;;
75716;SDS011;64333;50.138;14.332;2023-04-24T08:39:55;7.20;;;5.13;;
75716;SDS011;64333;50.138;14.332;2023-04-24T08:42:21;4.72;;;3.47;;
75716;SDS011;64333;50.138;14.332;2023-04-24T08:44:46;4.88;;;3.70;;
75716;SDS011;64333;50.138;14.332;2023-04-24T08:47:13;3.22;;;2.63;;
75716;SDS011;64333;50.138;14.332;2023-04-24T08:49:39;4.30;;;3.15;;
75716;SDS011;64333;50.138;14.332;2023-04-24T08:52:05;6.55;;;3.67;;
75716;SDS011;64333;50.138;14.332;2023-04-24T08:54:30;8.25;;;5.38;;
75716;SDS011;64333;50.138;14.332;2023-04-24T08:56:59;10.38;;;6.50;;
75716;SDS011;64333;50.138;14.332;2023-04-24T08:59:28;7.20;;;4.55;;
75716;SDS011;64333;50.138;14.332;2023-04-24T09:01:54;13.02;;;8.57;;
75716;SDS011;64333;50.138;14.332;2023-04-24T09:04:20;18.17;;;10.68;;
75716;SDS011;64333;50.138;14.332;2023-04-24T09:06:48;11.30;;;8.02;;
75716;SDS011;64333;50.138;14.332;2023-04-24T09:09:13;9.50;;;6.35;;
75716;SDS011;64333;50.138;14.332;2023-04-24T09:11:39;10.38;;;6.50;;
75716;SDS011;64333;50.138;14.332;2023-04-24T09:14:04;11.65;;;7.32;;
75716;SDS011;64333;50.138;14.332;2023-04-24T09:16:30;6.78;;;4.63;;
75716;SDS011;64333;50.138;14.332;2023-04-24T09:18:58;9.10;;;7.03;;
75716;SDS011;64333;50.138;14.332;2023-04-24T09:21:23;9.10;;;6.33;;
75716;SDS011;64333;50.138;14.332;2023-04-24T09:23:57;9.50;;;5.60;;
75716;SDS011;64333;50.138;14.332;2023-04-24T09:26:22;5.55;;;4.82;;
75716;SDS011;64333;50.138;14.332;2023-04-24T09:28:48;6.78;;;4.70;;
75716;SDS011;64333;50.138;14.332;2023-04-24T09:31:14;6.00;;;4.50;;
75716;SDS011;64333;50.138;14.332;2023-04-24T09:36:38;6.32;;;5.05;;
75716;SDS011;64333;50.138;14.332;2023-04-24T09:39:10;5.70;;;4.30;;
75716;SDS011;64333;50.138;14.332;2023-04-24T09:41:46;4.63;;;3.50;;
75716;SDS011;64333;50.138;14.332;2023-04-24T09:44:20;5.32;;;3.47;;
75716;SDS011;64333;50.138;14.332;2023-04-24T09:46:49;6.22;;;3.72;;
75716;SDS011;64333;50.138;14.332;2023-04-24T09:49:30;3.75;;;3.35;;
75716;SDS011;64333;50.138;14.332;2023-04-24T09:52:05;3.55;;;3.25;;
75716;SDS011;64333;50.138;14.332;2023-04-24T09:54:30;2.72;;;2.30;;
75716;SDS011;64333;50.138;14.332;2023-04-24T09:56:56;2.83;;;1.90;;
75716;SDS011;64333;50.138;14.332;2023-04-24T09:59:22;3.47;;;2.40;;
75716;SDS011;64333;50.138;14.332;2023-04-24T10:01:47;2.25;;;1.70;;
75716;SDS011;64333;50.138;14.332;2023-04-24T10:06:43;1.52;;;1.27;;
75716;SDS011;64333;50.138;14.332;2023-04-24T10:09:08;2.92;;;1.45;;
75716;SDS011;64333;50.138;14.332;2023-04-24T10:11:35;1.52;;;1.17;;
75716;SDS011;64333;50.138;14.332;2023-04-24T10:14:01;2.70;;;1.30;;
75716;SDS011;64333;50.138;14.332;2023-04-24T10:16:27;1.73;;;1.08;;
75716;SDS011;64333;50.138;14.332;2023-04-24T10:18:53;1.67;;;0.90;;
75716;SDS011;64333;50.138;14.332;2023-04-24T10:21:19;3.28;;;1.02;;
75716;SDS011;64333;50.138;14.332;2023-04-24T10:23:46;3.42;;;0.88;;
75716;SDS011;64333;50.138;14.332;2023-04-24T10:26:13;2.75;;;1.10;;
75716;SDS011;64333;50.138;14.332;2023-04-24T10:28:44;1.23;;;1.13;;
75716;SDS011;64333;50.138;14.332;2023-04-24T10:31:09;1.10;;;0.90;;
75716;SDS011;64333;50.138;14.332;2023-04-24T10:33:35;2.03;;;1.10;;
75716;SDS011;64333;50.138;14.332;2023-04-24T10:36:01;1.00;;;0.90;;
75716;SDS011;64333;50.138;14.332;2023-04-24T10:38:27;1.15;;;1.05;;
75716;SDS011;64333;50.138;14.332;2023-04-24T10:40:57;2.33;;;1.20;;
75716;SDS011;64333;50.138;14.332;2023-04-24T10:43:31;1.00;;;0.73;;
75716;SDS011;64333;50.138;14.332;2023-04-24T10:46:01;1.20;;;1.00;;
75716;SDS011;64333;50.138;14.332;2023-04-24T10:48:28;1.17;;;1.00;;
75716;SDS011;64333;50.138;14.332;2023-04-24T10:50:53;1.50;;;0.90;;
75716;SDS011;64333;50.138;14.332;2023-04-24T10:53:19;2.90;;;0.90;;
75716;SDS011;64333;50.138;14.332;2023-04-24T10:58:13;2.78;;;1.00;;
75716;SDS011;64333;50.138;14.332;2023-04-24T11:00:40;1.08;;;0.50;;
75716;SDS011;64333;50.138;14.332;2023-04-24T11:03:06;1.30;;;0.77;;
75716;SDS011;64333;50.138;14.332;2023-04-24T11:05:51;3.28;;;0.80;;
75716;SDS011;64333;50.138;14.332;2023-04-24T11:10:58;1.50;;;0.70;;
75716;SDS011;64333;50.138;14.332;2023-04-24T11:13:24;2.67;;;0.85;;
75716;SDS011;64333;50.138;14.332;2023-04-24T11:18:37;2.97;;;0.90;;
75716;SDS011;64333;50.138;14.332;2023-04-24T11:21:09;1.98;;;0.82;;
75716;SDS011;64333;50.138;14.332;2023-04-24T11:23:35;1.35;;;0.57;;
75716;SDS011;64333;50.138;14.332;2023-04-24T11:26:10;3.20;;;0.90;;
75716;SDS011;64333;50.138;14.332;2023-04-24T11:28:48;1.77;;;0.85;;
75716;SDS011;64333;50.138;14.332;2023-04-24T11:34:05;2.75;;;1.00;;
75716;SDS011;64333;50.138;14.332;2023-04-24T11:36:31;1.10;;;0.80;;
75716;SDS011;64333;50.138;14.332;2023-04-24T11:38:56;1.88;;;0.90;;
75716;SDS011;64333;50.138;14.332;2023-04-24T11:41:22;1.95;;;1.13;;
75716;SDS011;64333;50.138;14.332;2023-04-24T11:43:47;1.95;;;1.00;;
75716;SDS011;64333;50.138;14.332;2023-04-24T11:46:16;1.75;;;1.10;;
75716;SDS011;64333;50.138;14.332;2023-04-24T11:48:44;2.47;;;0.82;;
75716;SDS011;64333;50.138;14.332;2023-04-24T11:51:11;2.15;;;1.05;;
75716;SDS011;64333;50.138;14.332;2023-04-24T11:53:36;1.23;;;0.73;;
75716;SDS011;64333;50.138;14.332;2023-04-24T11:56:03;1.10;;;0.97;;
75716;SDS011;64333;50.138;14.332;2023-04-24T11:58:28;1.27;;;1.00;;
75716;SDS011;64333;50.138;14.332;2023-04-24T12:00:56;2.10;;;0.87;;
75716;SDS011;64333;50.138;14.332;2023-04-24T12:03:23;1.30;;;1.00;;
75716;SDS011;64333;50.138;14.332;2023-04-24T12:05:48;2.90;;;1.27;;
75716;SDS011;64333;50.138;14.332;2023-04-24T12:08:26;0.80;;;0.77;;
75716;SDS011;64333;50.138;14.332;2023-04-24T12:10:52;1.20;;;1.00;;
75716;SDS011;64333;50.138;14.332;2023-04-24T12:13:17;1.35;;;1.10;;
75716;SDS011;64333;50.138;14.332;2023-04-24T12:15:42;0.98;;;0.70;;
75716;SDS011;64333;50.138;14.332;2023-04-24T12:18:08;1.70;;;1.20;;
75716;SDS011;64333;50.138;14.332;2023-04-24T12:20:36;1.40;;;1.25;;
75716;SDS011;64333;50.138;14.332;2023-04-24T12:23:01;2.20;;;0.95;;
75716;SDS011;64333;50.138;14.332;2023-04-24T12:25:31;2.80;;;1.03;;
75716;SDS011;64333;50.138;14.332;2023-04-24T12:30:28;1.00;;;0.73;;
75716;SDS011;64333;50.138;14.332;2023-04-24T12:32:54;1.20;;;0.80;;
75716;SDS011;64333;50.138;14.332;2023-04-24T12:35:20;1.55;;;1.20;;
75716;SDS011;64333;50.138;14.332;2023-04-24T12:37:46;1.33;;;1.10;;
75716;SDS011;64333;50.138;14.332;2023-04-24T12:40:12;1.20;;;1.00;;
75716;SDS011;64333;50.138;14.332;2023-04-24T12:42:45;0.82;;;0.63;;
75716;SDS011;64333;50.138;14.332;2023-04-24T12:45:11;1.17;;;0.70;;
75716;SDS011;64333;50.138;14.332;2023-04-24T12:47:39;1.38;;;0.80;;
75716;SDS011;64333;50.138;14.332;2023-04-24T12:50:05;0.70;;;0.60;;
75716;SDS011;64333;50.138;14.332;2023-04-24T12:52:31;1.23;;;0.70;;
75716;SDS011;64333;50.138;14.332;2023-04-24T12:54:57;1.00;;;0.90;;
75716;SDS011;64333;50.138;14.332;2023-04-24T12:57:26;1.20;;;0.90;;
75716;SDS011;64333;50.138;14.332;2023-04-24T12:59:55;2.47;;;1.27;;
75716;SDS011;64333;50.138;14.332;2023-04-24T13:02:21;1.10;;;0.85;;
75716;SDS011;64333;50.138;14.332;2023-04-24T13:04:47;1.58;;;1.00;;
75716;SDS011;64333;50.138;14.332;2023-04-24T13:07:13;2.85;;;1.00;;
75716;SDS011;64333;50.138;14.332;2023-04-24T13:09:39;1.90;;;1.33;;
75716;SDS011;64333;50.138;14.332;2023-04-24T13:12:04;1.67;;;1.20;;
75716;SDS011;64333;50.138;14.332;2023-04-24T13:14:30;1.55;;;1.10;;
75716;SDS011;64333;50.138;14.332;2023-04-24T13:16:56;1.30;;;0.90;;
75716;SDS011;64333;50.138;14.332;2023-04-24T13:19:23;2.07;;;1.00;;
75716;SDS011;64333;50.138;14.332;2023-04-24T13:21:49;1.08;;;0.98;;
75716;SDS011;64333;50.138;14.332;2023-04-24T13:24:14;1.73;;;0.93;;
75716;SDS011;64333;50.138;14.332;2023-04-24T13:26:40;1.45;;;1.15;;
75716;SDS011;64333;50.138;14.332;2023-04-24T13:29:06;0.90;;;0.60;;
75716;SDS011;64333;50.138;14.332;2023-04-24T13:31:31;0.70;;;0.70;;
75716;SDS011;64333;50.138;14.332;2023-04-24T13:33:56;1.05;;;0.75;;
75716;SDS011;64333;50.138;14.332;2023-04-24T13:36:21;0.97;;;0.70;;
75716;SDS011;64333;50.138;14.332;2023-04-24T13:38:47;1.10;;;0.63;;
75716;SDS011;64333;50.138;14.332;2023-04-24T13:41:12;2.43;;;0.70;;
75716;SDS011;64333;50.138;14.332;2023-04-24T13:43:37;1.77;;;0.65;;
75716;SDS011;64333;50.138;14.332;2023-04-24T13:46:02;0.73;;;0.60;;
75716;SDS011;64333;50.138;14.332;2023-04-24T13:48:28;0.52;;;0.47;;
75716;SDS011;64333;50.138;14.332;2023-04-24T13:50:53;1.00;;;0.60;;
75716;SDS011;64333;50.138;14.332;2023-04-24T13:53:18;1.07;;;0.50;;
75716;SDS011;64333;50.138;14.332;2023-04-24T13:55:44;1.07;;;0.50;;
75716;SDS011;64333;50.138;14.332;2023-04-24T13:58:09;0.80;;;0.65;;
75716;SDS011;64333;50.138;14.332;2023-04-24T14:00:35;1.73;;;0.73;;
75716;SDS011;64333;50.138;14.332;2023-04-24T14:03:00;3.85;;;0.90;;
75716;SDS011;64333;50.138;14.332;2023-04-24T14:05:26;0.93;;;0.70;;
75716;SDS011;64333;50.138;14.332;2023-04-24T14:07:51;1.33;;;1.00;;
75716;SDS011;64333;50.138;14.332;2023-04-24T14:10:16;1.83;;;1.00;;
75716;SDS011;64333;50.138;14.332;2023-04-24T14:12:41;1.33;;;0.90;;
75716;SDS011;64333;50.138;14.332;2023-04-24T14:15:07;0.97;;;0.77;;
75716;SDS011;64333;50.138;14.332;2023-04-24T14:17:33;1.15;;;0.60;;
75716;SDS011;64333;50.138;14.332;2023-04-24T14:19:58;1.97;;;1.27;;
75716;SDS011;64333;50.138;14.332;2023-04-24T14:22:25;1.13;;;0.70;;
75716;SDS011;64333;50.138;14.332;2023-04-24T14:24:50;1.20;;;0.68;;
75716;SDS011;64333;50.138;14.332;2023-04-24T14:27:16;0.83;;;0.70;;
75716;SDS011;64333;50.138;14.332;2023-04-24T14:29:41;0.93;;;0.70;;
75716;SDS011;64333;50.138;14.332;2023-04-24T14:32:09;1.00;;;0.80;;
75716;SDS011;64333;50.138;14.332;2023-04-24T14:34:39;1.80;;;0.63;;
75716;SDS011;64333;50.138;14.332;2023-04-24T14:37:05;1.20;;;0.80;;
75716;SDS011;64333;50.138;14.332;2023-04-24T14:39:32;0.95;;;0.60;;
75716;SDS011;64333;50.138;14.332;2023-04-24T14:41:58;0.82;;;0.47;;
75716;SDS011;64333;50.138;14.332;2023-04-24T14:44:23;1.20;;;0.70;;